This is the latest recevied weather packets stored in our database for station/object KC8ZBC. If no packets are shown the sender has not sent any weather packets the latest 10 day(s).
| Time | Temp. | Humidity | Pressure | Rain* | Wind** | Luminosity | Snow |
|---|---|---|---|---|---|---|---|
| 1778079197 | 8.33° C | 59% | 987.5 hPa | 0 mm | - | 559 W/m² | - |
| 1778078895 | 7.78° C | 59% | 987.4 hPa | 0 mm | - | 560 W/m² | - |
| 1778078591 | 7.78° C | 60% | 987.5 hPa | 0 mm | - | 543 W/m² | - |
| 1778078289 | 8.89° C | 59% | 987.6 hPa | 0 mm | - | 599 W/m² | - |
| 1778077986 | 7.78° C | 62% | 987.5 hPa | 0 mm | - | 618 W/m² | - |
| 1778077684 | 7.78° C | 60% | 987.4 hPa | 0 mm | - | 603 W/m² | - |
| 1778077382 | 7.78° C | 63% | 987.3 hPa | 0 mm | - | 593 W/m² | - |
| 1778077080 | 7.78° C | 63% | 987.4 hPa | 0 mm | - | 568 W/m² | - |
| 1778076778 | 7.78° C | 64% | 987.3 hPa | 0 mm | - | 509 W/m² | - |
| 1778076475 | 6.67° C | 65% | 987.2 hPa | 0 mm | - | 552 W/m² | - |
| 1778076172 | 6.11° C | 66% | 987.2 hPa | 0 mm | - | 483 W/m² | - |
| 1778075869 | 6.67° C | 66% | 987.4 hPa | 0 mm | - | 511 W/m² | - |
| 1778075565 | 6.11° C | 66% | 987.2 hPa | 0 mm | - | 465 W/m² | - |
| 1778075262 | 6.11° C | 66% | 987.2 hPa | 0 mm | - | 481 W/m² | - |
| 1778074959 | 6.11° C | 66% | 987.1 hPa | 0 mm | - | 431 W/m² | - |
| 1778074656 | 6.11° C | 67% | 987.2 hPa | 0 mm | - | 475 W/m² | - |
| 1778074352 | 6.11° C | 67% | 987.2 hPa | 0 mm | - | 365 W/m² | - |
| 1778074049 | 6.67° C | 65% | 986.6 hPa | 0 mm | - | 247 W/m² | - |
| 1778073746 | 6.11° C | 67% | 986.8 hPa | 0 mm | - | 269 W/m² | - |
| 1778073444 | 5.56° C | 67% | 987 hPa | 0 mm | - | 306 W/m² | - |
| 1778073140 | 6.11° C | 67% | 987 hPa | 0 mm | - | 254 W/m² | - |
| 1778072837 | 6.11° C | 66% | 986.9 hPa | 0 mm | - | 269 W/m² | - |
| 1778072534 | 5.56° C | 67% | 986.9 hPa | 0 mm | - | 243 W/m² | - |
| 1778072232 | 6.11° C | 68% | 986.6 hPa | 0 mm | - | 225 W/m² | - |
| 1778071930 | 5.56° C | 69% | 986.7 hPa | 0 mm | - | 160 W/m² | - |
* Rain latest hour (hover to see other rain measurements)
** Current wind speed in m/s (hover to see current wind gust speed)